Time;durP1;ratioP1;P1;durP2;ratioP2;P2;SDS_P1;SDS_P2;PMS_P1;PMS_P2;Temp;Humidity;BMP_temperature;BMP_pressure;BME280_temperature;BME280_humidity;BME280_pressure;Samples;Min_cycle;Max_cycle;Signal;HPM_P1;HPM_P2
2024/03/23 00:02:56;;;;;;;13.43;11.80;;;;;;;13.18;66.21;99378.13;10405881;28;20121;-66
2024/03/23 00:07:58;;;;;;;14.77;13.37;;;;;;;13.18;66.65;99372.78;10396274;28;20052;-66
2024/03/23 00:13:01;;;;;;;14.95;11.68;;;;;;;13.18;66.38;99359.41;10386729;28;20362;-66
2024/03/23 00:18:02;;;;;;;13.30;11.93;;;;;;;13.17;66.52;99344.41;10396208;28;20186;-67
2024/03/23 00:23:03;;;;;;;13.85;12.40;;;;;;;13.11;66.45;99345.06;10414915;28;20702;-67
2024/03/23 00:28:03;;;;;;;12.95;11.63;;;;;;;13.09;66.51;99343.38;10411638;28;20076;-67
2024/03/23 00:33:03;;;;;;;15.33;11.63;;;;;;;13.09;66.48;99322.00;10398652;28;20060;-66
2024/03/23 00:38:04;;;;;;;13.00;11.60;;;;;;;13.10;66.81;99312.13;10399961;28;20279;-67
2024/03/23 00:43:05;;;;;;;13.20;11.73;;;;;;;13.17;66.67;99309.66;10417203;28;20048;-66
2024/03/23 00:48:05;;;;;;;13.07;11.70;;;;;;;13.25;66.50;99298.97;10407419;28;20057;-66
2024/03/23 00:53:06;;;;;;;13.52;12.20;;;;;;;13.26;66.54;99280.09;10409927;28;20045;-66
2024/03/23 00:58:06;;;;;;;14.38;12.88;;;;;;;13.31;66.40;99282.28;10394734;28;20117;-66
2024/03/23 01:03:07;;;;;;;14.27;12.88;;;;;;;13.25;66.68;99257.03;10408513;28;20576;-66
2024/03/23 01:08:07;;;;;;;13.20;11.98;;;;;;;13.21;66.59;99238.84;10413050;28;20784;-66
2024/03/23 01:13:09;;;;;;;15.25;12.63;;;;;;;13.24;66.98;99249.19;10377323;28;20072;-66
2024/03/23 01:18:10;;;;;;;16.15;14.40;;;;;;;13.18;67.52;99247.19;10390160;28;20213;-66
2024/03/23 01:23:11;;;;;;;16.30;14.65;;;;;;;13.09;67.71;99239.19;10435400;28;20049;-66
2024/03/23 01:28:11;;;;;;;14.70;12.88;;;;;;;13.07;68.61;99237.66;10462775;28;20078;-67
2024/03/23 01:33:12;;;;;;;14.30;12.82;;;;;;;13.12;69.08;99221.13;10446993;28;20063;-66
2024/03/23 01:38:12;;;;;;;13.80;12.07;;;;;;;13.13;68.01;99217.47;10432849;28;20881;-66
2024/03/23 01:43:13;;;;;;;14.82;13.27;;;;;;;13.13;68.29;99214.78;10425906;28;20691;-65
2024/03/23 01:48:14;;;;;;;15.40;13.90;;;;;;;13.16;68.00;99195.75;10417301;28;20107;-66
2024/03/23 01:53:17;;;;;;;15.20;13.60;;;;;;;13.13;68.23;99182.72;10416411;28;20053;-67
2024/03/23 01:58:17;;;;;;;14.95;13.00;;;;;;;13.05;68.24;99170.22;10415925;28;20095;-66
2024/03/23 02:03:27;;;;;;;15.93;14.23;;;;;;;13.05;68.38;99167.53;10418050;28;20367;-66
2024/03/23 02:08:30;;;;;;;17.60;15.32;;;;;;;12.84;68.93;99143.97;10412826;28;20132;-66
2024/03/23 02:13:31;;;;;;;16.65;15.02;;;;;;;12.92;69.37;99152.00;10378610;28;20129;-67
2024/03/23 02:18:33;;;;;;;17.65;15.85;;;;;;;12.96;69.12;99161.34;10411243;28;20134;-65
2024/03/23 02:23:34;;;;;;;16.65;14.85;;;;;;;12.97;69.50;99140.81;10390498;28;20065;-66
2024/03/23 02:28:35;;;;;;;16.27;14.55;;;;;;;12.99;69.43;99133.47;10397910;28;20353;-65
2024/03/23 02:33:37;;;;;;;18.10;14.15;;;;;;;13.01;70.12;99129.63;10386800;28;20056;-66
2024/03/23 02:38:38;;;;;;;18.00;15.48;;;;;;;12.94;68.90;99109.94;10369954;28;20077;-67
2024/03/23 02:43:38;;;;;;;18.52;15.18;;;;;;;12.91;70.01;99110.28;10403589;28;20147;-66
2024/03/23 02:48:39;;;;;;;21.48;15.00;;;;;;;12.60;69.84;99084.22;10397095;28;20052;-68
2024/03/23 02:53:39;;;;;;;15.65;14.05;;;;;;;12.80;69.67;99091.91;10369671;28;20045;-66
2024/03/23 02:58:40;;;;;;;18.10;15.57;;;;;;;12.67;69.82;99098.56;10392039;28;20130;-66
2024/03/23 03:03:42;;;;;;;16.40;14.60;;;;;;;12.70;69.81;99087.56;10401091;28;20517;-67
2024/03/23 03:08:42;;;;;;;15.20;13.70;;;;;;;12.75;70.39;99096.91;10375257;28;20140;-67
2024/03/23 03:13:42;;;;;;;16.95;13.63;;;;;;;12.78;70.46;99078.72;10373859;28;20487;-66
2024/03/23 03:18:46;;;;;;;15.20;13.35;;;;;;;12.81;70.18;99078.38;10386628;28;20154;-65
2024/03/23 03:23:50;;;;;;;16.50;14.45;;;;;;;12.77;70.08;99094.91;10400073;28;21631;-66
2024/03/23 03:28:52;;;;;;;16.60;13.77;;;;;;;12.77;70.39;99070.88;10404288;28;20183;-66
2024/03/23 03:33:53;;;;;;;17.60;14.57;;;;;;;12.77;69.73;99057.53;10399956;28;20119;-65
2024/03/23 03:38:53;;;;;;;18.20;14.48;;;;;;;12.72;69.72;99052.69;10401542;28;20045;-67
2024/03/23 03:43:55;;;;;;;16.33;14.63;;;;;;;12.70;69.95;99058.19;10411144;28;20053;-67
2024/03/23 03:48:55;;;;;;;18.58;16.08;;;;;;;12.61;69.82;99047.66;10436481;28;20667;-66
2024/03/23 03:53:56;;;;;;;17.73;15.65;;;;;;;12.62;70.14;99052.00;10416212;28;20049;-67
2024/03/23 03:58:56;;;;;;;18.55;15.55;;;;;;;12.62;70.15;99052.84;10393432;28;20045;-66
2024/03/23 04:03:57;;;;;;;16.27;14.32;;;;;;;12.50;70.32;99054.16;10421553;28;20072;-67
2024/03/23 04:08:57;;;;;;;14.57;13.07;;;;;;;12.53;70.66;99062.66;10403584;28;20143;-65
2024/03/23 04:13:58;;;;;;;13.82;12.30;;;;;;;12.48;71.01;99053.50;10388422;28;20047;-67
2024/03/23 04:18:59;;;;;;;17.70;15.25;;;;;;;12.40;71.60;99077.50;10411247;28;20132;-67
2024/03/23 04:23:59;;;;;;;20.48;17.17;;;;;;;12.19;73.02;99094.81;10417998;28;21021;-65
2024/03/23 04:29:00;;;;;;;15.05;12.82;;;;;;;11.97;73.91;99082.91;10419194;28;20124;-66
2024/03/23 04:34:01;;;;;;;11.30;9.90;;;;;;;11.94;75.79;99128.56;10415447;28;20124;-68
2024/03/23 04:39:02;;;;;;;7.13;6.30;;;;;;;11.63;76.64;99115.69;10418475;28;20124;-65
2024/03/23 04:44:04;;;;;;;5.68;3.67;;;;;;;11.64;76.31;99106.72;10407529;28;20052;-66
2024/03/23 04:49:04;;;;;;;4.57;2.88;;;;;;;11.63;76.81;99111.22;10418471;28;20116;-66
2024/03/23 04:54:05;;;;;;;1.27;0.85;;;;;;;10.77;74.12;99066.66;10412820;28;20128;-66
2024/03/23 04:59:06;;;;;;;0.60;0.30;;;;;;;10.59;75.15;99133.19;10416031;28;20049;-65
2024/03/23 05:04:06;;;;;;;0.30;0.10;;;;;;;10.20;73.98;99128.91;10436091;28;20048;-65
2024/03/23 05:09:07;;;;;;;0.50;0.22;;;;;;;10.30;75.20;99143.97;10411784;28;20041;-66
2024/03/23 05:14:09;;;;;;;0.40;0.20;;;;;;;9.81;75.15;99139.75;10421060;28;20051;-65
2024/03/23 05:19:09;;;;;;;0.30;0.10;;;;;;;10.07;74.74;99147.91;10412322;28;20183;-66
2024/03/23 05:24:11;;;;;;;0.20;0.13;;;;;;;9.79;74.56;99178.06;10415470;28;20084;-66
2024/03/23 05:29:13;;;;;;;0.38;0.10;;;;;;;10.02;74.99;99202.50;10394272;28;20120;-67
2024/03/23 05:34:13;;;;;;;0.50;0.20;;;;;;;10.46;74.20;99213.38;10412912;28;20207;-66
2024/03/23 05:39:16;;;;;;;0.52;0.25;;;;;;;10.83;72.46;99225.78;10397239;28;20151;-66
2024/03/23 05:44:18;;;;;;;1.45;0.20;;;;;;;10.74;70.11;99242.66;10406165;28;20139;-66
2024/03/23 05:49:18;;;;;;;1.08;0.30;;;;;;;10.52;71.37;99255.34;10418229;28;20163;-67
2024/03/23 05:54:19;;;;;;;1.05;0.40;;;;;;;10.30;69.77;99266.34;10412683;28;20615;-67
2024/03/23 05:59:19;;;;;;;0.80;0.38;;;;;;;10.24;70.07;99263.28;10373972;28;20586;-67
2024/03/23 06:04:21;;;;;;;0.63;0.30;;;;;;;10.14;70.15;99286.41;10382198;28;20049;-65
2024/03/23 06:09:21;;;;;;;0.70;0.40;;;;;;;10.01;70.17;99307.16;10380597;28;20647;-67
2024/03/23 06:14:25;;;;;;;0.40;0.30;;;;;;;10.10;69.87;99314.25;10399380;28;20131;-66
2024/03/23 06:19:27;;;;;;;0.90;0.30;;;;;;;10.42;69.27;99310.44;10400666;28;20914;-66
2024/03/23 06:24:28;;;;;;;0.20;0.10;;;;;;;10.58;66.31;99308.00;10406845;28;20127;-66
2024/03/23 06:29:28;;;;;;;0.20;0.08;;;;;;;10.17;66.64;99330.50;10413294;28;20055;-67
2024/03/23 06:34:30;;;;;;;0.10;0.00;;;;;;;10.29;65.32;99341.81;10407011;28;20048;-66
2024/03/23 06:39:30;;;;;;;0.30;0.00;;;;;;;10.41;65.71;99364.63;10410275;28;20895;-66
2024/03/23 06:44:31;;;;;;;0.10;0.00;;;;;;;9.98;64.58;99393.34;10402191;28;20162;-66
2024/03/23 06:49:31;;;;;;;1.00;0.00;;;;;;;9.81;65.15;99383.44;10381718;28;20048;-69
2024/03/23 06:54:32;;;;;;;0.20;0.08;;;;;;;9.27;67.69;99401.53;10408143;28;20065;-64
2024/03/23 06:59:33;;;;;;;0.00;0.00;;;;;;;9.26;67.78;99421.94;10396959;28;20141;-65
2024/03/23 07:04:34;;;;;;;0.90;0.10;;;;;;;9.70;65.77;99424.28;10410090;28;20069;-65
2024/03/23 07:09:35;;;;;;;0.50;0.00;;;;;;;9.78;64.83;99421.75;10411960;28;20076;-66
2024/03/23 07:14:35;;;;;;;0.52;0.10;;;;;;;9.97;64.83;99441.34;10407346;28;20099;-65
2024/03/23 07:19:36;;;;;;;1.00;0.00;;;;;;;9.32;65.25;99460.41;10392292;28;20288;-67
2024/03/23 07:24:39;;;;;;;0.85;0.20;;;;;;;9.20;65.87;99479.09;10401586;28;20073;-66
2024/03/23 07:29:39;;;;;;;1.35;0.20;;;;;;;9.66;64.65;99489.31;10416859;28;20140;-68
2024/03/23 07:34:43;;;;;;;2.67;0.38;;;;;;;9.99;62.70;99509.34;10408987;28;20052;-69
2024/03/23 07:39:45;;;;;;;1.15;0.20;;;;;;;10.08;60.92;99523.66;10410182;28;20848;-66
2024/03/23 07:44:49;;;;;;;2.67;0.63;;;;;;;9.97;62.34;99534.41;10406434;28;20185;-66
2024/03/23 07:49:49;;;;;;;2.08;0.60;;;;;;;10.20;61.62;99527.84;10420360;28;20714;-67
2024/03/23 07:54:52;;;;;;;3.15;0.75;;;;;;;9.87;60.74;99540.53;10390355;28;20136;-64
2024/03/23 07:59:52;;;;;;;1.88;0.70;;;;;;;9.65;61.30;99557.56;10402692;28;20064;-64
2024/03/23 08:04:52;;;;;;;3.58;1.13;;;;;;;10.12;62.57;99562.28;10401511;28;20061;-65
2024/03/23 08:09:53;;;;;;;3.28;1.52;;;;;;;10.22;60.48;99563.16;10397461;28;20156;-64
2024/03/23 08:14:53;;;;;;;5.50;1.75;;;;;;;10.52;58.31;99574.66;10411818;28;20059;-66
2024/03/23 08:19:53;;;;;;;5.88;2.03;;;;;;;10.46;59.31;99577.88;10388736;28;20115;-65
2024/03/23 08:24:54;;;;;;;3.42;2.10;;;;;;;10.35;58.93;99589.50;10359240;28;20859;-66
2024/03/23 08:29:54;;;;;;;4.65;3.50;;;;;;;10.68;58.70;99589.25;10364819;28;20117;-65
2024/03/23 08:34:55;;;;;;;6.55;3.15;;;;;;;10.72;58.14;99586.16;10378031;28;20712;-66
2024/03/23 08:39:56;;;;;;;5.72;3.30;;;;;;;11.05;57.61;99605.34;10405345;28;20071;-65
2024/03/23 08:44:56;;;;;;;6.10;3.33;;;;;;;11.17;56.41;99595.38;10397692;28;20161;-64
2024/03/23 08:49:57;;;;;;;4.67;3.13;;;;;;;11.47;56.50;99609.47;10386091;28;21757;-65
2024/03/23 08:54:58;;;;;;;4.07;3.10;;;;;;;11.23;55.43;99588.59;10391856;28;20820;-64
2024/03/23 08:59:58;;;;;;;5.95;3.83;;;;;;;11.41;57.17;99602.00;10408159;28;20059;-65
2024/03/23 09:05:04;;;;;;;5.18;2.95;;;;;;;11.75;55.43;99604.97;10411327;28;20060;-65
2024/03/23 09:10:06;;;;;;;5.18;2.50;;;;;;;11.52;55.95;99609.84;10418093;28;20163;-65
2024/03/23 09:15:07;;;;;;;6.00;2.42;;;;;;;12.19;54.30;99612.41;10401639;28;20140;-64
2024/03/23 09:20:09;;;;;;;8.30;3.30;;;;;;;12.45;52.21;99603.66;10424585;28;20044;-65
2024/03/23 09:25:09;;;;;;;6.30;2.47;;;;;;;12.66;51.88;99616.69;10417323;28;20060;-64
2024/03/23 09:30:12;;;;;;;5.32;2.67;;;;;;;12.83;51.15;99609.66;10396137;28;20044;-65
2024/03/23 09:35:13;;;;;;;5.63;2.47;;;;;;;13.10;49.29;99595.34;10418606;28;20129;-65
2024/03/23 09:40:13;;;;;;;6.57;2.58;;;;;;;13.49;49.93;99611.00;10420742;28;20650;-64
2024/03/23 09:45:19;;;;;;;6.03;2.78;;;;;;;12.98;45.71;99618.81;10392179;28;20044;-64
2024/03/23 09:50:20;;;;;;;6.88;3.13;;;;;;;12.92;46.24;99630.09;10417379;28;20065;-65
2024/03/23 09:55:20;;;;;;;5.72;2.15;;;;;;;12.73;47.39;99620.44;10414939;28;20507;-64
2024/03/23 10:00:21;;;;;;;4.57;2.15;;;;;;;12.29;46.23;99626.50;10413045;28;20044;-64
2024/03/23 10:05:22;;;;;;;7.05;2.70;;;;;;;12.06;48.32;99623.41;10401633;28;20155;-64
2024/03/23 10:10:25;;;;;;;5.32;2.10;;;;;;;12.03;46.14;99635.19;10412929;28;20139;-64
2024/03/23 10:15:25;;;;;;;4.30;1.65;;;;;;;12.11;46.95;99629.13;10415105;28;20127;-63
2024/03/23 10:20:26;;;;;;;3.80;1.80;;;;;;;13.92;43.30;99619.94;10413350;28;20032;-64
2024/03/23 10:25:27;;;;;;;6.10;2.45;;;;;;;14.30;41.24;99612.34;10422415;28;20167;-65
2024/03/23 10:30:28;;;;;;;8.00;1.90;;;;;;;15.11;39.92;99564.38;10410959;28;20055;-65
2024/03/23 10:35:28;;;;;;;4.55;1.50;;;;;;;15.30;38.92;99573.91;10410819;28;20071;-65
2024/03/23 10:40:29;;;;;;;3.28;0.95;;;;;;;14.60;39.31;99574.44;10412646;28;20064;-65
2024/03/23 10:45:30;;;;;;;5.80;1.42;;;;;;;14.32;39.49;99556.81;10408035;28;20043;-65
2024/03/23 10:50:32;;;;;;;4.97;1.45;;;;;;;13.83;41.26;99579.94;10411431;28;20861;-64
2024/03/23 10:55:36;;;;;;;5.15;1.58;;;;;;;13.44;41.38;99590.09;10384485;28;20176;-64
2024/03/23 11:00:37;;;;;;;5.10;1.40;;;;;;;12.79;42.37;99603.81;10409245;28;20698;-65
2024/03/23 11:05:37;;;;;;;7.05;2.03;;;;;;;11.68;47.35;99652.72;10405445;28;20056;-65
2024/03/23 11:10:38;;;;;;;2.60;0.82;;;;;;;10.75;55.81;99657.75;10417620;28;20106;-65
2024/03/23 11:15:38;;;;;;;3.30;0.95;;;;;;;11.24;58.63;99620.44;10423523;28;20736;-65
2024/03/23 11:20:38;;;;;;;4.80;0.90;;;;;;;11.73;55.66;99627.47;10412822;28;20704;-65
2024/03/23 11:25:39;;;;;;;3.58;1.33;;;;;;;11.61;57.84;99630.28;10418123;28;20037;-65
2024/03/23 11:30:40;;;;;;;3.03;0.90;;;;;;;11.87;54.80;99628.81;10409864;28;20048;-65
2024/03/23 11:35:41;;;;;;;4.55;1.25;;;;;;;11.64;50.22;99638.00;10386283;28;20064;-65
2024/03/23 11:40:43;;;;;;;3.97;0.90;;;;;;;10.92;51.10;99634.91;10408868;28;20168;-65
2024/03/23 11:45:45;;;;;;;4.60;1.60;;;;;;;10.68;52.58;99613.22;10395610;28;20147;-64
2024/03/23 11:50:49;;;;;;;5.18;2.03;;;;;;;10.93;52.90;99617.97;10407079;28;20120;-65
2024/03/23 11:55:56;;;;;;;4.53;1.90;;;;;;;10.48;53.73;99613.19;10412850;28;20309;-65
2024/03/23 12:00:59;;;;;;;4.18;1.90;;;;;;;11.42;52.04;99593.03;10401675;28;20175;-66
2024/03/23 12:06:01;;;;;;;3.45;1.65;;;;;;;14.85;44.40;99581.50;10410068;28;20136;-65
2024/03/23 12:11:14;;;;;;;3.53;1.55;;;;;;;16.87;39.59;99571.28;10422730;28;20260;-65
2024/03/23 12:16:20;;;;;;;3.85;1.65;;;;;;;18.20;37.09;99556.19;10413946;28;20128;-65
2024/03/23 12:21:22;;;;;;;4.53;1.98;;;;;;;19.43;34.24;99544.41;10410469;28;20132;-64
2024/03/23 12:26:23;;;;;;;4.13;1.65;;;;;;;20.23;32.32;99535.84;10424466;28;20116;-65
2024/03/23 12:31:24;;;;;;;5.75;1.85;;;;;;;21.86;30.35;99526.41;10408084;28;20135;-63
2024/03/23 12:36:25;;;;;;;4.55;2.50;;;;;;;23.91;27.24;99515.91;10403579;28;20510;-65
2024/03/23 12:41:25;;;;;;;3.60;1.40;;;;;;;27.41;23.34;99517.00;10414359;28;20657;-64
2024/03/23 12:46:26;;;;;;;4.20;1.90;;;;;;;25.47;23.43;99505.91;10402075;28;20464;-65
2024/03/23 12:51:26;;;;;;;4.85;1.90;;;;;;;28.43;21.12;99500.13;10425841;28;20059;-64
2024/03/23 12:56:30;;;;;;;4.90;2.03;;;;;;;24.89;22.42;99488.53;10414156;28;20044;-64
2024/03/23 13:01:33;;;;;;;4.38;1.40;;;;;;;20.41;27.72;99498.25;10410930;28;20124;-65
2024/03/23 13:06:34;;;;;;;4.00;1.80;;;;;;;17.62;32.43;99496.88;10403893;28;20080;-65
2024/03/23 13:11:35;;;;;;;3.30;1.60;;;;;;;16.49;34.89;99504.06;10393580;28;20180;-65
2024/03/23 13:16:36;;;;;;;5.70;2.08;;;;;;;15.25;36.34;99479.72;10413711;28;20045;-63
2024/03/23 13:21:36;;;;;;;3.45;1.17;;;;;;;13.73;42.21;99562.16;10414585;28;22910;-65
2024/03/23 13:26:37;;;;;;;1.75;0.60;;;;;;;11.35;53.64;99589.28;10400285;28;20083;-65
2024/03/23 13:31:39;;;;;;;1.63;0.28;;;;;;;10.24;59.06;99609.06;10410275;28;22127;-65
2024/03/23 13:36:39;;;;;;;0.70;0.20;;;;;;;10.40;60.63;99624.53;10407452;28;20140;-66
2024/03/23 13:41:45;;;;;;;2.05;0.43;;;;;;;11.16;59.62;99625.63;10400022;28;20141;-65
2024/03/23 13:46:47;;;;;;;1.75;0.30;;;;;;;11.95;57.84;99626.25;10419373;28;20593;-64
2024/03/23 13:51:47;;;;;;;0.50;0.17;;;;;;;12.95;54.50;99619.13;10433461;28;20616;-65
2024/03/23 13:56:52;;;;;;;0.20;0.20;;;;;;;13.91;51.54;99598.69;10411492;28;20045;-64
2024/03/23 14:01:54;;;;;;;0.98;0.03;;;;;;;14.88;47.16;99590.19;10416647;28;20136;-64
2024/03/23 14:06:55;;;;;;;1.13;0.10;;;;;;;15.17;47.95;99579.78;10420255;28;20132;-66
2024/03/23 14:11:55;;;;;;;0.52;0.10;;;;;;;15.41;47.64;99588.78;10414361;28;20268;-63
2024/03/23 14:16:56;;;;;;;0.88;0.20;;;;;;;15.25;43.90;99586.97;10411623;28;20585;-63
2024/03/23 14:21:56;;;;;;;0.30;0.10;;;;;;;15.20;45.95;99589.34;10402174;28;20048;-64
2024/03/23 14:26:57;;;;;;;0.73;0.20;;;;;;;14.86;44.91;99579.63;10411521;28;20104;-66
2024/03/23 14:31:57;;;;;;;2.67;0.40;;;;;;;13.98;46.06;99546.22;10417324;28;20628;-66
2024/03/23 14:36:58;;;;;;;1.30;0.30;;;;;;;14.13;47.15;99554.44;10404194;28;20040;-66
2024/03/23 14:41:59;;;;;;;1.05;0.20;;;;;;;14.13;48.00;99555.28;10417438;28;20317;-65
2024/03/23 14:46:59;;;;;;;2.55;0.40;;;;;;;13.69;45.87;99558.16;10418700;28;20045;-65
2024/03/23 14:52:00;;;;;;;0.50;0.20;;;;;;;13.43;46.59;99560.84;10408740;28;20088;-71
2024/03/23 14:57:01;;;;;;;0.98;0.50;;;;;;;13.22;46.83;99551.34;10433911;28;20044;-66
2024/03/23 15:02:02;;;;;;;2.33;0.50;;;;;;;13.18;47.42;99554.47;10420153;28;20069;-64
2024/03/23 15:07:03;;;;;;;1.00;0.22;;;;;;;13.03;47.56;99531.03;10415926;28;20067;-65
2024/03/23 15:12:05;;;;;;;0.30;0.10;;;;;;;12.93;46.62;99524.94;10391439;28;20133;-66
2024/03/23 15:17:08;;;;;;;2.13;0.30;;;;;;;13.06;46.91;99527.19;10393475;28;20120;-64
2024/03/23 15:22:10;;;;;;;1.27;0.57;;;;;;;12.93;45.42;99519.59;10400749;28;20136;-64
2024/03/23 15:27:11;;;;;;;0.88;0.20;;;;;;;12.67;45.85;99520.44;10416390;28;20812;-63
2024/03/23 15:32:11;;;;;;;1.30;0.20;;;;;;;12.43;47.43;99486.38;10407905;28;20091;-64
2024/03/23 15:37:11;;;;;;;0.70;0.30;;;;;;;12.36;47.33;99486.13;10410032;28;20859;-65
2024/03/23 15:42:12;;;;;;;1.45;0.70;;;;;;;12.27;47.51;99476.38;10407765;28;20064;-64
2024/03/23 15:47:12;;;;;;;0.35;0.20;;;;;;;12.29;47.41;99521.59;10408764;28;20214;-64
2024/03/23 15:52:13;;;;;;;3.15;0.20;;;;;;;10.19;56.61;99574.06;10429699;28;20075;-65
2024/03/23 15:57:14;;;;;;;1.98;0.40;;;;;;;9.95;58.34;99544.34;10429504;28;20052;-64
2024/03/23 16:02:14;;;;;;;1.05;0.20;;;;;;;10.21;58.79;99524.22;10438809;28;20116;-65
2024/03/23 16:07:15;;;;;;;1.25;0.20;;;;;;;9.35;60.92;99521.22;10434358;28;20074;-65
2024/03/23 16:12:15;;;;;;;1.40;0.15;;;;;;;9.78;63.26;99493.53;10424756;28;20177;-65
2024/03/23 16:17:16;;;;;;;1.73;0.28;;;;;;;10.12;59.08;99477.19;10427084;28;20051;-65
2024/03/23 16:22:16;;;;;;;2.63;0.38;;;;;;;10.16;57.68;99467.94;10421264;28;20049;-64
2024/03/23 16:27:18;;;;;;;0.73;0.22;;;;;;;10.19;59.12;99477.47;10398130;28;20068;-64
2024/03/23 16:32:19;;;;;;;1.00;0.43;;;;;;;10.32;57.15;99477.19;10409148;28;20107;-64
2024/03/23 16:37:19;;;;;;;1.45;0.40;;;;;;;10.21;58.14;99479.00;10393673;28;20067;-65
2024/03/23 16:42:21;;;;;;;1.40;0.40;;;;;;;10.29;57.29;99472.16;10409195;28;20084;-65
2024/03/23 16:47:22;;;;;;;2.03;0.70;;;;;;;10.31;58.27;99484.31;10410367;28;20815;-65
2024/03/23 16:52:22;;;;;;;2.45;0.73;;;;;;;10.23;56.75;99482.34;10416085;28;20120;-65
2024/03/23 16:57:22;;;;;;;2.50;0.82;;;;;;;10.32;57.74;99483.34;10413812;28;20047;-65
2024/03/23 17:02:23;;;;;;;2.35;0.32;;;;;;;10.30;59.42;99490.63;10422490;28;20052;-65
2024/03/23 17:07:23;;;;;;;2.20;0.95;;;;;;;10.07;56.37;99484.72;10412918;28;20126;-64
2024/03/23 17:12:24;;;;;;;1.10;0.75;;;;;;;10.00;57.87;99488.94;10404067;28;20582;-64
2024/03/23 17:17:26;;;;;;;1.88;0.45;;;;;;;9.99;57.05;99492.56;10402410;28;20079;-65
2024/03/23 17:22:27;;;;;;;2.60;0.50;;;;;;;9.83;56.83;99480.69;10406941;28;20865;-65
2024/03/23 17:27:27;;;;;;;1.23;0.60;;;;;;;9.77;57.75;99467.91;10413943;28;20078;-64
2024/03/23 17:32:31;;;;;;;2.55;0.68;;;;;;;9.86;59.10;99483.06;10404850;28;20131;-64
2024/03/23 17:37:31;;;;;;;2.60;0.82;;;;;;;9.71;56.27;99495.03;10409294;28;20557;-65
2024/03/23 17:42:32;;;;;;;0.90;0.68;;;;;;;9.54;56.69;99481.44;10413591;28;20128;-65
2024/03/23 17:47:36;;;;;;;2.08;0.80;;;;;;;9.68;58.72;99490.84;10401857;28;20645;-65
2024/03/23 17:52:37;;;;;;;0.85;0.35;;;;;;;9.15;60.23;99566.25;10398944;28;20143;-64
2024/03/23 17:57:37;;;;;;;0.50;0.20;;;;;;;7.72;67.22;99556.81;10413649;28;20505;-64
2024/03/23 18:02:38;;;;;;;2.13;0.90;;;;;;;7.32;72.57;99541.41;10394973;28;20041;-65
2024/03/23 18:07:39;;;;;;;3.33;1.60;;;;;;;7.53;71.35;99546.81;10419973;28;20047;-64
2024/03/23 18:12:39;;;;;;;6.75;2.63;;;;;;;8.05;69.78;99536.50;10414950;28;20049;-65
2024/03/23 18:17:41;;;;;;;1.85;0.50;;;;;;;8.30;67.26;99520.28;10398565;28;20705;-64
2024/03/23 18:22:42;;;;;;;2.22;1.00;;;;;;;8.40;67.97;99530.13;10418641;28;20068;-64
2024/03/23 18:27:43;;;;;;;1.95;1.08;;;;;;;8.71;68.92;99527.56;10429952;28;20144;-64
2024/03/23 18:32:43;;;;;;;1.20;0.30;;;;;;;8.74;66.17;99527.34;10397523;28;20052;-65
2024/03/23 18:37:44;;;;;;;2.20;0.75;;;;;;;8.61;69.62;99511.59;10417764;28;20681;-64
2024/03/23 18:42:45;;;;;;;1.83;0.60;;;;;;;8.71;67.88;99541.69;10410766;28;20044;-64
2024/03/23 18:47:47;;;;;;;3.58;0.82;;;;;;;8.69;67.84;99543.63;10396862;28;20169;-65
2024/03/23 18:52:47;;;;;;;3.03;0.85;;;;;;;8.84;67.75;99555.63;10387386;28;20159;-64
2024/03/23 18:57:48;;;;;;;3.28;0.88;;;;;;;8.82;65.56;99557.53;10402413;28;20613;-64
2024/03/23 19:02:48;;;;;;;1.27;0.60;;;;;;;8.74;64.57;99554.69;10412833;28;20226;-65
2024/03/23 19:07:48;;;;;;;1.20;0.40;;;;;;;8.62;64.06;99551.25;10402120;28;20724;-65
2024/03/23 19:12:49;;;;;;;2.55;0.60;;;;;;;8.44;63.66;99561.59;10411848;28;20056;-65
2024/03/23 19:17:50;;;;;;;2.92;1.40;;;;;;;8.32;64.80;99550.16;10413875;28;20056;-64
2024/03/23 19:22:51;;;;;;;1.83;0.73;;;;;;;8.34;64.95;99557.97;10408171;28;20048;-65
2024/03/23 19:27:51;;;;;;;2.70;0.90;;;;;;;8.33;65.54;99550.97;10412516;28;20102;-64
2024/03/23 19:32:52;;;;;;;2.63;1.02;;;;;;;8.37;65.95;99563.03;10400691;28;20688;-65
2024/03/23 19:37:53;;;;;;;3.25;0.77;;;;;;;8.22;64.22;99545.72;10411157;28;20272;-65
2024/03/23 19:42:53;;;;;;;1.75;0.80;;;;;;;8.04;65.00;99540.13;10412492;28;20046;-64
2024/03/23 19:47:54;;;;;;;2.05;0.55;;;;;;;7.90;64.96;99534.13;10401519;28;20052;-65
2024/03/23 19:52:54;;;;;;;2.03;0.93;;;;;;;7.86;66.23;99529.19;10408587;28;20439;-64
2024/03/23 19:57:55;;;;;;;1.48;0.73;;;;;;;7.93;66.68;99538.34;10395793;28;20609;-65
2024/03/23 20:02:55;;;;;;;5.53;2.25;;;;;;;7.98;66.35;99541.44;10401838;28;20456;-64
2024/03/23 20:07:59;;;;;;;3.38;0.90;;;;;;;7.88;66.68;99532.56;10409845;28;20688;-65
2024/03/23 20:13:00;;;;;;;2.00;0.93;;;;;;;7.67;67.33;99511.28;10412447;28;20055;-64
2024/03/23 20:18:03;;;;;;;2.53;0.77;;;;;;;7.42;68.47;99506.16;10394896;28;20136;-64
2024/03/23 20:23:03;;;;;;;2.65;1.13;;;;;;;7.42;69.38;99508.78;10405954;28;20124;-64
2024/03/23 20:28:04;;;;;;;1.30;0.70;;;;;;;7.31;70.13;99515.91;10408422;28;20681;-64
2024/03/23 20:33:04;;;;;;;2.25;0.63;;;;;;;7.17;71.49;99514.34;10385465;28;20048;-65
2024/03/23 20:38:04;;;;;;;2.13;1.25;;;;;;;7.20;71.52;99509.63;10390800;28;20048;-64
2024/03/23 20:43:09;;;;;;;3.20;1.10;;;;;;;6.99;72.75;99504.22;10411856;28;20781;-64
2024/03/23 20:48:10;;;;;;;1.90;0.98;;;;;;;6.90;71.84;99492.56;10402052;28;20127;-64
2024/03/23 20:53:10;;;;;;;2.25;1.05;;;;;;;6.92;72.85;99505.66;10421304;28;20143;-65
2024/03/23 20:58:11;;;;;;;2.42;0.80;;;;;;;6.89;72.22;99505.88;10406969;28;20768;-66
2024/03/23 21:03:12;;;;;;;1.02;0.52;;;;;;;6.87;71.99;99513.94;10412734;28;20422;-65
2024/03/23 21:08:12;;;;;;;0.95;0.75;;;;;;;6.81;72.12;99509.13;10400133;28;20056;-66
2024/03/23 21:13:15;;;;;;;1.50;0.47;;;;;;;7.03;72.00;99513.59;10408136;28;20071;-65
2024/03/23 21:18:16;;;;;;;1.48;0.80;;;;;;;6.95;71.93;99507.22;10409618;28;21063;-64
2024/03/23 21:23:16;;;;;;;2.03;0.73;;;;;;;6.97;72.48;99508.78;10411308;28;20529;-64
2024/03/23 21:28:16;;;;;;;1.90;0.80;;;;;;;6.78;73.32;99514.66;10359517;28;20052;-65
2024/03/23 21:33:18;;;;;;;3.38;1.10;;;;;;;6.86;73.26;99509.63;10413069;28;20120;-65
2024/03/23 21:38:19;;;;;;;2.42;0.95;;;;;;;6.63;74.21;99499.94;10420697;28;20063;-65
2024/03/23 21:43:19;;;;;;;1.30;0.80;;;;;;;6.60;74.75;99501.00;10401052;28;20207;-64
2024/03/23 21:48:20;;;;;;;2.65;0.80;;;;;;;6.44;75.49;99500.50;10405651;28;20159;-65
2024/03/23 21:53:20;;;;;;;2.05;0.73;;;;;;;6.56;74.90;99507.53;10419160;28;20079;-64
2024/03/23 21:58:25;;;;;;;2.03;0.70;;;;;;;6.44;75.62;99505.78;10419446;28;20049;-65
2024/03/23 22:03:26;;;;;;;2.05;0.82;;;;;;;6.57;75.11;99511.81;10398973;28;20081;-64
2024/03/23 22:08:26;;;;;;;1.70;0.80;;;;;;;6.66;75.26;99505.00;10412148;28;20051;-67
2024/03/23 22:13:26;;;;;;;3.38;1.08;;;;;;;6.58;74.10;99468.56;10409806;28;20506;-66
2024/03/23 22:18:27;;;;;;;1.35;1.08;;;;;;;6.81;74.39;99492.41;10430634;28;20057;-66
2024/03/23 22:23:29;;;;;;;1.60;1.13;;;;;;;6.81;74.56;99487.94;10394746;28;20059;-65
2024/03/23 22:28:30;;;;;;;4.65;2.10;;;;;;;6.62;74.80;99462.09;10400855;28;20124;-64
2024/03/23 22:33:32;;;;;;;3.63;2.05;;;;;;;6.62;74.77;99467.38;10396782;28;20125;-64
2024/03/23 22:38:32;;;;;;;2.78;1.95;;;;;;;6.63;74.92;99460.28;10372264;28;20040;-65
2024/03/23 22:43:33;;;;;;;3.10;2.13;;;;;;;6.65;75.38;99456.56;10392363;28;20049;-65
2024/03/23 22:48:35;;;;;;;4.10;2.53;;;;;;;6.55;75.20;99434.44;10418960;28;20079;-65
2024/03/23 22:53:35;;;;;;;4.82;2.15;;;;;;;6.70;75.55;99449.09;10402489;28;20163;-65
2024/03/23 22:58:36;;;;;;;2.65;1.88;;;;;;;6.81;74.69;99450.91;10393063;28;20052;-68
2024/03/23 23:03:36;;;;;;;3.25;2.50;;;;;;;6.59;75.22;99435.88;10403391;28;20696;-65
2024/03/23 23:08:38;;;;;;;3.25;2.50;;;;;;;6.62;75.93;99435.66;10409892;28;20135;-66
2024/03/23 23:13:39;;;;;;;4.07;2.75;;;;;;;6.68;75.94;99431.66;10401528;28;20352;-65
2024/03/23 23:18:39;;;;;;;4.78;3.25;;;;;;;6.78;75.64;99430.00;10403918;28;20048;-65